createdAt,value
2023-03-17T00:01:17.120Z,96.72
2023-03-17T00:03:47.439Z,96.91
2023-03-17T00:06:32.288Z,97.06
2023-03-17T00:09:04.537Z,97.55
2023-03-17T00:11:33.216Z,97.22
2023-03-17T00:14:10.872Z,96.82
2023-03-17T00:16:53.520Z,96.64
2023-03-17T00:19:34.885Z,96.54
2023-03-17T00:22:09.077Z,95.83
2023-03-17T00:24:45.062Z,95.73
2023-03-17T00:27:18.316Z,95.24
2023-03-17T00:29:49.358Z,95.11
2023-03-17T00:32:25.749Z,95.31
2023-03-17T00:37:45.780Z,94.88
2023-03-17T00:40:38.112Z,94.96
2023-03-17T00:43:23.891Z,94.89
2023-03-17T00:46:08.086Z,94.33
2023-03-17T00:48:39.192Z,93.81
2023-03-17T00:51:15.360Z,93.86
2023-03-17T00:53:53.796Z,93.51
2023-03-17T00:56:37.685Z,93.62
2023-03-17T01:02:35.356Z,93.06
2023-03-17T01:05:44.763Z,92.91
2023-03-17T01:08:27.282Z,93.07
2023-03-17T01:11:14.742Z,93.03
2023-03-17T01:17:05.044Z,92.91
2023-03-17T01:19:54.981Z,92.68
2023-03-17T01:22:43.141Z,92.54
2023-03-17T01:25:36.966Z,92.40
2023-03-17T01:28:28.187Z,92.33
2023-03-17T01:31:21.763Z,92.55
2023-03-17T01:34:22.181Z,92.43
2023-03-17T01:37:30.703Z,92.25
2023-03-17T01:40:43.033Z,91.99
2023-03-17T01:43:52.193Z,92.17
2023-03-17T01:53:06.205Z,91.96
2023-03-17T01:55:38.091Z,92.01
2023-03-17T01:58:07.186Z,91.51
2023-03-17T02:00:35.654Z,91.86
2023-03-17T02:03:04.378Z,91.80
2023-03-17T02:05:33.817Z,91.97
2023-03-17T02:08:02.130Z,91.53
2023-03-17T02:10:33.700Z,91.44
2023-03-17T02:13:05.677Z,91.24
2023-03-17T02:15:39.356Z,91.40
2023-03-17T02:18:08.013Z,91.47
2023-03-17T02:20:38.457Z,91.45
2023-03-17T02:26:10.196Z,91.03
2023-03-17T02:28:39.734Z,91.29
2023-03-17T02:31:09.576Z,91.20
2023-03-17T02:33:38.208Z,91.11
2023-03-17T02:36:07.403Z,90.90
2023-03-17T02:38:37.812Z,91.14
2023-03-17T02:41:10.020Z,90.75
2023-03-17T02:43:38.602Z,90.82
2023-03-17T02:46:07.618Z,90.76
2023-03-17T02:48:36.824Z,90.32
2023-03-17T02:51:05.174Z,90.59
2023-03-17T02:53:35.554Z,90.58
2023-03-17T02:56:04.703Z,90.36
2023-03-17T02:58:32.816Z,90.15
2023-03-17T03:01:00.919Z,90.14
2023-03-17T03:03:30.092Z,90.37
2023-03-17T03:05:59.201Z,90.46
2023-03-17T03:08:31.058Z,90.32
2023-03-17T03:11:00.549Z,89.95
2023-03-17T03:13:31.387Z,90.07
2023-03-17T03:16:01.723Z,90.26
2023-03-17T03:18:32.979Z,90.15
2023-03-17T03:21:04.069Z,90.02
2023-03-17T03:23:32.275Z,89.87
2023-03-17T03:26:02.342Z,90.02
2023-03-17T03:28:32.115Z,89.90
2023-03-17T03:31:00.207Z,89.61
2023-03-17T03:33:29.114Z,89.59
2023-03-17T03:35:59.695Z,89.50
2023-03-17T03:38:27.844Z,89.37
2023-03-17T03:40:55.919Z,19.20
2023-03-17T03:43:24.408Z,-1.00
2023-03-17T03:45:52.888Z,-1.00
2023-03-17T03:48:21.909Z,-1.00
2023-03-17T03:50:50.844Z,-1.00
2023-03-17T03:53:20.302Z,-1.00
2023-03-17T03:55:49.669Z,-1.00
2023-03-17T03:58:18.140Z,-1.00
2023-03-17T04:00:46.882Z,-1.00
2023-03-17T04:03:16.128Z,-1.00
2023-03-17T04:05:46.083Z,-1.00
2023-03-17T04:08:18.363Z,-1.00
2023-03-17T04:10:47.721Z,-1.00
2023-03-17T04:13:15.899Z,-1.00
2023-03-17T04:15:47.216Z,-1.00
2023-03-17T04:18:16.969Z,-1.00
2023-03-17T04:20:45.024Z,-1.00
2023-03-17T04:23:13.473Z,-1.00
2023-03-17T04:25:42.883Z,-1.00
2023-03-17T04:28:12.663Z,-1.00
2023-03-17T04:30:42.837Z,-1.00
2023-03-17T04:33:11.273Z,-1.00
2023-03-17T04:35:39.411Z,-1.00
2023-03-17T04:38:07.967Z,-1.00
2023-03-17T04:40:37.294Z,-1.00
2023-03-17T04:43:05.573Z,-1.00
2023-03-17T04:45:33.935Z,-1.00
2023-03-17T08:39:14.338Z,95.55
2023-03-17T08:41:48.065Z,93.39
2023-03-17T08:44:14.923Z,93.46
2023-03-17T08:46:41.778Z,93.05
2023-03-17T08:49:09.795Z,92.74
2023-03-17T08:51:36.738Z,93.00
2023-03-17T08:54:07.232Z,93.15
2023-03-17T09:00:46.418Z,92.89
2023-03-17T09:03:13.218Z,93.03
2023-03-17T09:05:41.893Z,93.05
2023-03-17T09:08:11.402Z,93.11
2023-03-17T09:10:38.128Z,93.03
2023-03-17T09:13:12.111Z,92.74
2023-03-17T09:15:39.844Z,93.07
2023-03-17T09:18:06.773Z,93.12
2023-03-17T09:20:37.381Z,93.23
2023-03-17T09:23:08.527Z,93.11
2023-03-17T09:25:35.982Z,93.54
2023-03-17T09:28:04.458Z,93.31
2023-03-17T09:30:34.461Z,93.09
2023-03-17T09:33:01.290Z,92.70
2023-03-17T09:35:30.821Z,92.70
2023-03-17T09:37:57.558Z,92.23
2023-03-17T09:40:32.297Z,92.31
2023-03-17T09:43:26.966Z,92.79
2023-03-17T09:45:53.702Z,92.60
2023-03-17T09:49:06.798Z,92.46
2023-03-17T09:51:42.651Z,92.38
2023-03-17T09:54:17.925Z,92.69
2023-03-17T09:56:49.301Z,92.76
2023-03-17T09:59:43.175Z,92.74
2023-03-17T10:02:24.908Z,92.59
2023-03-17T10:04:52.559Z,92.55
2023-03-17T10:07:40.250Z,92.30
2023-03-17T10:10:15.274Z,91.49
2023-03-17T10:13:21.150Z,92.00
2023-03-17T10:15:56.684Z,91.89
2023-03-17T10:18:30.765Z,92.11
2023-03-17T10:21:03.118Z,91.42
2023-03-17T10:23:35.144Z,91.37
2023-03-17T10:26:16.838Z,91.79
2023-03-17T10:28:43.728Z,91.60
2023-03-17T10:31:19.407Z,91.45
2023-03-17T10:33:51.657Z,90.86
2023-03-17T10:36:32.813Z,90.88
2023-03-17T10:38:59.534Z,90.79
2023-03-17T10:41:26.548Z,90.82
2023-03-17T10:43:54.123Z,90.75
2023-03-17T10:46:23.801Z,90.49
2023-03-17T10:48:53.118Z,89.86
2023-03-17T10:51:31.352Z,90.45
2023-03-17T10:54:03.848Z,90.51
2023-03-17T10:56:35.655Z,90.01
2023-03-17T10:59:08.039Z,90.12
2023-03-17T11:01:38.698Z,90.14
2023-03-17T11:04:24.164Z,90.15
2023-03-17T11:06:51.889Z,89.75
2023-03-17T11:09:19.153Z,89.75
2023-03-17T11:11:58.546Z,89.48
2023-03-17T11:14:27.692Z,89.27
2023-03-17T11:16:58.579Z,89.57
2023-03-17T11:19:37.761Z,89.60
2023-03-17T11:22:13.614Z,89.42
2023-03-17T11:25:10.868Z,89.32
2023-03-17T11:27:43.915Z,89.40
2023-03-17T11:30:27.506Z,89.61
2023-03-17T11:33:01.702Z,89.51
2023-03-17T11:35:40.868Z,89.44
2023-03-17T11:38:24.550Z,89.47
2023-03-17T11:41:01.730Z,89.29
2023-03-17T11:43:48.806Z,88.96
2023-03-17T11:46:29.038Z,88.75
2023-03-17T11:49:14.630Z,88.81
2023-03-17T11:52:04.423Z,88.60
2023-03-17T11:54:54.580Z,88.84
2023-03-17T11:57:44.091Z,88.94
2023-03-17T12:00:27.243Z,88.88
2023-03-17T12:02:59.994Z,88.42
2023-03-17T12:05:27.163Z,88.56
2023-03-17T12:07:56.382Z,88.20
2023-03-17T12:10:34.015Z,88.24
2023-03-17T12:13:35.839Z,88.47
2023-03-17T12:16:15.008Z,88.54
2023-03-17T12:18:59.096Z,88.32
2023-03-17T12:21:49.575Z,88.03
2023-03-17T12:24:24.408Z,88.19
2023-03-17T12:27:04.459Z,88.36
2023-03-17T12:29:49.172Z,88.50
2023-03-17T12:32:21.907Z,88.28
2023-03-17T12:35:01.889Z,88.50
2023-03-17T12:37:30.111Z,88.52
2023-03-17T12:40:09.841Z,88.67
2023-03-17T12:43:00.519Z,88.67
2023-03-17T12:45:34.780Z,88.62
2023-03-17T12:48:14.367Z,88.73
2023-03-17T12:51:06.296Z,88.67
2023-03-17T12:53:34.156Z,88.42
2023-03-17T12:56:23.220Z,88.47
2023-03-17T12:58:51.338Z,88.52
2023-03-17T13:01:36.887Z,88.44
2023-03-17T13:04:05.962Z,88.29
2023-03-17T13:06:40.801Z,88.48
2023-03-17T13:09:37.951Z,88.75
2023-03-17T13:12:06.482Z,88.84
2023-03-17T13:14:47.755Z,88.95
2023-03-17T13:17:23.901Z,88.75
2023-03-17T13:20:14.858Z,88.63
2023-03-17T13:23:03.126Z,88.89
2023-03-17T13:25:37.761Z,88.89
2023-03-17T13:28:11.740Z,88.56
2023-03-17T13:30:38.877Z,88.65
2023-03-17T13:33:23.355Z,88.75
2023-03-17T13:35:59.936Z,88.65
2023-03-17T13:38:32.942Z,88.68
2023-03-17T13:41:06.229Z,88.90
2023-03-17T13:43:52.226Z,89.06
2023-03-17T13:46:19.178Z,89.37
2023-03-17T13:48:46.598Z,89.37
2023-03-17T13:51:20.065Z,89.52
2023-03-17T16:12:24.683Z,97.90
2023-03-17T16:15:05.419Z,96.37
2023-03-17T16:17:49.253Z,96.21
2023-03-17T16:20:29.023Z,95.73
2023-03-17T16:23:09.399Z,95.97
2023-03-17T16:25:47.813Z,95.72
2023-03-17T16:28:21.120Z,95.84
2023-03-17T16:30:50.288Z,95.82
2023-03-17T16:33:43.595Z,95.46
2023-03-17T16:36:17.885Z,95.33
2023-03-17T16:38:49.288Z,95.35
2023-03-17T16:41:25.050Z,95.26
2023-03-17T16:43:58.212Z,95.17
2023-03-17T16:46:34.822Z,95.17
2023-03-17T16:49:07.226Z,95.30
2023-03-17T16:51:35.514Z,95.43
2023-03-17T16:54:06.768Z,95.58
2023-03-17T16:56:36.015Z,95.75
2023-03-17T16:59:11.695Z,95.34
2023-03-17T17:01:40.668Z,95.56
2023-03-17T17:04:10.842Z,95.63
2023-03-17T17:06:39.566Z,95.16
2023-03-17T17:09:08.408Z,95.42
2023-03-17T17:11:36.617Z,95.43
2023-03-17T17:14:05.915Z,94.82
2023-03-17T17:16:36.106Z,94.69
2023-03-17T17:19:04.374Z,94.40
2023-03-17T17:21:33.084Z,94.20
2023-03-17T17:24:01.322Z,94.29
2023-03-17T17:26:32.516Z,94.18
2023-03-17T17:29:01.276Z,94.03
2023-03-17T17:31:30.063Z,94.13
2023-03-17T17:33:59.577Z,94.12
2023-03-17T17:36:27.694Z,94.04
2023-03-17T17:38:59.267Z,94.33
2023-03-17T17:41:29.011Z,94.06
2023-03-17T17:43:58.863Z,94.25
2023-03-17T17:46:28.500Z,94.08
2023-03-17T17:48:57.068Z,93.97
2023-03-17T17:51:28.909Z,93.96
2023-03-17T17:53:57.472Z,94.09
2023-03-17T17:56:26.179Z,94.02
2023-03-17T17:58:55.141Z,93.88
2023-03-17T18:01:23.349Z,93.55
2023-03-17T18:03:54.773Z,93.35
2023-03-17T18:06:22.919Z,93.32
2023-03-17T18:08:51.292Z,93.30
2023-03-17T18:11:23.092Z,93.20
2023-03-17T18:13:51.563Z,93.36
2023-03-17T18:16:19.843Z,93.55
2023-03-17T18:18:52.111Z,93.49
2023-03-17T18:21:21.545Z,93.67
2023-03-17T18:23:50.200Z,93.40
2023-03-17T18:26:18.444Z,93.54
2023-03-17T18:28:47.980Z,93.62
2023-03-17T18:31:29.447Z,93.66
2023-03-17T18:34:05.112Z,93.40
2023-03-17T18:36:35.897Z,93.35
2023-03-17T18:39:05.227Z,93.23
2023-03-17T18:41:33.454Z,93.44
2023-03-17T18:44:02.516Z,93.37
2023-03-17T18:46:31.624Z,93.33
2023-03-17T18:49:00.169Z,93.60
2023-03-17T18:51:28.548Z,93.52
2023-03-17T18:53:56.674Z,93.50
2023-03-17T18:56:29.219Z,93.48
2023-03-17T18:58:58.032Z,93.34
2023-03-17T19:01:29.608Z,93.12
2023-03-17T19:03:58.592Z,93.24
2023-03-17T19:06:26.868Z,93.28
2023-03-17T19:08:55.015Z,93.24
2023-03-17T19:11:23.122Z,93.04
2023-03-17T19:13:52.620Z,92.82
2023-03-17T19:16:29.118Z,92.70
2023-03-17T19:18:58.141Z,92.85
2023-03-17T19:21:26.429Z,92.89
2023-03-17T19:23:58.536Z,92.58
2023-03-17T19:26:28.770Z,93.10
2023-03-17T19:28:58.731Z,93.09
2023-03-17T19:31:27.089Z,93.23
2023-03-17T19:33:55.966Z,93.08
2023-03-17T19:36:25.336Z,93.18
2023-03-17T19:38:53.455Z,93.19
2023-03-17T19:41:32.579Z,93.37
2023-03-17T19:44:02.242Z,93.25
2023-03-17T19:46:30.749Z,93.47
2023-03-17T19:49:01.766Z,93.39
2023-03-17T19:51:29.929Z,93.34
2023-03-17T19:54:05.432Z,93.34
2023-03-17T19:56:34.655Z,93.52
2023-03-17T19:59:02.929Z,93.12
2023-03-17T20:01:32.736Z,93.33
2023-03-17T20:04:01.593Z,93.41
2023-03-17T20:06:32.090Z,93.50
2023-03-17T20:09:01.514Z,93.35
2023-03-17T20:11:30.055Z,93.30
2023-03-17T20:13:58.450Z,93.25
2023-03-17T20:16:27.267Z,93.35
2023-03-17T20:18:56.545Z,93.38
2023-03-17T20:21:26.864Z,93.12
2023-03-17T20:23:56.427Z,93.21
2023-03-17T20:26:26.209Z,93.04
2023-03-17T20:28:54.483Z,93.03
2023-03-17T20:31:24.022Z,93.02
2023-03-17T20:33:52.859Z,92.56
2023-03-17T20:36:22.253Z,92.70
2023-03-17T20:38:51.020Z,92.07
2023-03-17T20:41:19.478Z,91.68
2023-03-17T20:43:48.263Z,91.87
2023-03-17T20:46:19.837Z,91.57
2023-03-17T20:48:48.392Z,91.51
2023-03-17T20:51:16.861Z,91.64
2023-03-17T20:53:49.661Z,91.15
2023-03-17T20:56:19.925Z,90.94
2023-03-17T20:58:51.106Z,91.29
2023-03-17T21:01:21.358Z,90.73
2023-03-17T21:03:50.826Z,90.75
2023-03-17T21:06:19.807Z,90.95
2023-03-17T21:08:48.023Z,90.56
2023-03-17T21:11:23.177Z,90.25
2023-03-17T21:13:52.032Z,90.08
2023-03-17T21:16:46.447Z,90.57
2023-03-17T21:19:18.317Z,90.38
2023-03-17T21:21:46.856Z,90.58
2023-03-17T21:24:32.052Z,90.44
2023-03-17T21:27:01.758Z,90.45
2023-03-17T21:29:30.805Z,90.48
2023-03-17T21:32:04.503Z,90.54
2023-03-17T21:34:35.364Z,90.59
2023-03-17T21:37:03.968Z,90.66
2023-03-17T21:39:36.284Z,90.78
2023-03-17T21:42:05.562Z,90.86
2023-03-17T21:44:37.309Z,91.03
2023-03-17T21:47:06.392Z,90.90
2023-03-17T21:49:34.682Z,90.83
2023-03-17T21:52:04.527Z,90.94
2023-03-17T21:54:33.438Z,91.01
2023-03-17T21:57:05.570Z,91.09
2023-03-17T21:59:37.065Z,91.00
2023-03-17T22:02:05.198Z,91.07
2023-03-17T22:04:33.422Z,91.23
2023-03-17T22:07:04.561Z,91.36
2023-03-17T22:09:38.179Z,91.10
2023-03-17T22:12:07.962Z,91.46
2023-03-17T22:14:37.190Z,91.29
2023-03-17T22:17:06.430Z,91.21
2023-03-17T22:19:35.210Z,90.87
2023-03-17T22:22:08.429Z,90.90
2023-03-17T22:24:38.343Z,90.69
2023-03-17T22:27:06.500Z,90.99
2023-03-17T22:29:36.876Z,90.90
2023-03-17T22:32:05.391Z,90.45
2023-03-17T22:34:33.588Z,90.64
2023-03-17T22:37:03.733Z,90.75
2023-03-17T22:39:32.060Z,90.91
2023-03-17T22:42:03.038Z,90.49
2023-03-17T22:44:31.945Z,90.69
2023-03-17T22:47:00.002Z,90.72
2023-03-17T22:49:28.517Z,90.99
2023-03-17T22:51:56.759Z,90.89
2023-03-17T22:54:25.197Z,90.53
2023-03-17T22:56:53.475Z,90.76
2023-03-17T22:59:21.792Z,90.44
2023-03-17T23:01:50.446Z,90.62
2023-03-17T23:04:18.702Z,90.54
2023-03-17T23:06:48.991Z,90.66
2023-03-17T23:09:17.273Z,90.74
2023-03-17T23:11:46.217Z,90.70
2023-03-17T23:14:17.429Z,90.65
2023-03-17T23:16:46.673Z,90.79
2023-03-17T23:19:20.446Z,90.79
2023-03-17T23:21:48.649Z,90.67
2023-03-17T23:24:18.072Z,90.62
2023-03-17T23:26:46.784Z,90.90
2023-03-17T23:29:16.071Z,91.14
2023-03-17T23:31:45.698Z,91.21
2023-03-17T23:34:13.763Z,91.08
2023-03-17T23:36:42.355Z,91.13
2023-03-17T23:39:11.799Z,91.25
2023-03-17T23:41:40.269Z,91.16
2023-03-17T23:44:09.326Z,91.24
2023-03-17T23:46:38.790Z,91.24
2023-03-17T23:49:07.432Z,91.34
2023-03-17T23:51:36.117Z,91.25
2023-03-17T23:54:05.894Z,91.25
2023-03-17T23:56:37.165Z,91.26
2023-03-17T23:59:07.646Z,90.91
